Sid Moller — WDF9421 — position and weather

sailwx.info

Track history (hours):
 
Tides and Currents Weather Stations Pressure Air Temp Water Temp Dewpoint Dewpoint Depression Visibility Wind Speed Wind Dir Waves Ship Positions

Sid Moller

Owner: Genesis Marine, LLC, Houston, TX. More information available from US FCC via Universal Licensing System and Coast Guard Vessel Documentation Center.

Last reported at 2016-Sep-25 07:33 UTC. Time now 2016-Sep-25 08:54 UTC.
Position N 30°04' W 093°21'.

Length 28 m; draft 3.3 m.

Type: Towing. MMSI: 367504980.

Date/timePositionNaut miles runAvg speedWind from/ knotsBaromVisibWave heightAir tempDewpointWater temp
2016-Sep-25 07:33N 30°04' W 093°21'0 0.0
2016-Sep-25 04:33N 30°04' W 093°21'0 0.0
2016-Sep-25 00:33N 30°04' W 093°21'0 0.0
2016-Sep-24 22:33N 30°04' W 093°21'0 0.0
2016-Sep-24 21:33N 30°04' W 093°21'0 0.0
2016-Sep-24 19:33N 30°04' W 093°21'0 0.0
2016-Sep-24 18:33N 30°04' W 093°21'0 0.0
2016-Sep-24 17:33N 30°04' W 093°21'0 0.0
2016-Sep-24 16:33N 30°04' W 093°21'1 0.4
2016-Sep-24 14:33N 30°04' W 093°21'1 0.6
2016-Sep-24 12:33N 30°04' W 093°23'9 4.4
2016-Sep-24 10:33N 30°04' W 093°33'5 5.1
2016-Sep-24 09:33N 30°04' W 093°39'72 4.2
2016-Sep-23 16:25N 29°28' W 094°51'5 6.2
2016-Sep-23 15:33N 29°33' W 094°55'12 6.2
2016-Sep-23 13:32N 29°44' W 095°02'1 0.3
2016-Sep-23 09:33N 29°44' W 095°03'0 0.0
2016-Sep-23 06:32N 29°44' W 095°03'0 0.0
2016-Sep-23 04:33N 29°44' W 095°03'0 0.0
2016-Sep-23 03:33N 29°44' W 095°03'0 0.0
2016-Sep-23 02:32N 29°44' W 095°03'0 0.0
2016-Sep-23 01:33N 29°44' W 095°03'0 0.0
2016-Sep-23 00:33N 29°44' W 095°03'0 0.0
2016-Sep-22 23:33N 29°44' W 095°03'0 0.0
2016-Sep-22 12:32N 29°44' W 095°03'4 0.5
2016-Sep-22 04:32N 29°42' W 094°59'5 5.6
2016-Sep-22 03:33N 29°36' W 094°57'  
Track history (hours):
 
Tides and Currents Weather Stations Pressure Air Temp Water Temp Dewpoint Dewpoint Depression Visibility Wind Speed Wind Dir Waves Ship Positions

Sid Moller

Owner: Genesis Marine, LLC, Houston, TX. More information available from US FCC via Universal Licensing System and Coast Guard Vessel Documentation Center.

Last reported at 2016-Sep-25 07:33 UTC. Time now 2016-Sep-25 08:54 UTC.
Position N 30°04' W 093°21'.

Length 28 m; draft 3.3 m.

Type: Towing. MMSI: 367504980.

Date/timePositionNaut miles runAvg speedWind from/ knotsBaromVisibWave heightAir tempDewpointWater temp
2016-Sep-25 07:33N 30°04' W 093°21'0 0.0
2016-Sep-25 04:33N 30°04' W 093°21'0 0.0
2016-Sep-25 00:33N 30°04' W 093°21'0 0.0
2016-Sep-24 22:33N 30°04' W 093°21'0 0.0
2016-Sep-24 21:33N 30°04' W 093°21'0 0.0
2016-Sep-24 19:33N 30°04' W 093°21'0 0.0
2016-Sep-24 18:33N 30°04' W 093°21'0 0.0
2016-Sep-24 17:33N 30°04' W 093°21'0 0.0
2016-Sep-24 16:33N 30°04' W 093°21'1 0.4
2016-Sep-24 14:33N 30°04' W 093°21'1 0.6
2016-Sep-24 12:33N 30°04' W 093°23'9 4.4
2016-Sep-24 10:33N 30°04' W 093°33'5 5.1
2016-Sep-24 09:33N 30°04' W 093°39'72 4.2
2016-Sep-23 16:25N 29°28' W 094°51'5 6.2
2016-Sep-23 15:33N 29°33' W 094°55'12 6.2
2016-Sep-23 13:32N 29°44' W 095°02'1 0.3
2016-Sep-23 09:33N 29°44' W 095°03'0 0.0
2016-Sep-23 06:32N 29°44' W 095°03'0 0.0
2016-Sep-23 04:33N 29°44' W 095°03'0 0.0
2016-Sep-23 03:33N 29°44' W 095°03'0 0.0
2016-Sep-23 02:32N 29°44' W 095°03'0 0.0
2016-Sep-23 01:33N 29°44' W 095°03'0 0.0
2016-Sep-23 00:33N 29°44' W 095°03'0 0.0
2016-Sep-22 23:33N 29°44' W 095°03'0 0.0
2016-Sep-22 12:32N 29°44' W 095°03'4 0.5
2016-Sep-22 04:32N 29°42' W 094°59'5 5.6
2016-Sep-22 03:33N 29°36' W 094°57'  

Dump ship's entire track history